sensor_id;sensor_type;location;lat;lon;timestamp;temperature;humidity
52471;DHT22;38382;53.160;7.026;2024-01-11T00:00:16;-6.80;99.90
52471;DHT22;38382;53.160;7.026;2024-01-11T00:02:42;-6.60;99.90
52471;DHT22;38382;53.160;7.026;2024-01-11T00:05:08;-6.60;99.90
52471;DHT22;38382;53.160;7.026;2024-01-11T00:07:34;-6.60;99.90
52471;DHT22;38382;53.160;7.026;2024-01-11T00:10:01;-6.70;99.90
52471;DHT22;38382;53.160;7.026;2024-01-11T00:12:27;-6.60;99.90
52471;DHT22;38382;53.160;7.026;2024-01-11T00:14:54;-6.50;99.90
52471;DHT22;38382;53.160;7.026;2024-01-11T00:17:20;-5.10;99.90
52471;DHT22;38382;53.160;7.026;2024-01-11T00:19:45;-6.50;99.90
52471;DHT22;38382;53.160;7.026;2024-01-11T00:22:11;-6.50;99.90
52471;DHT22;38382;53.160;7.026;2024-01-11T00:24:37;-6.40;99.90
52471;DHT22;38382;53.160;7.026;2024-01-11T00:27:03;-6.40;99.90
52471;DHT22;38382;53.160;7.026;2024-01-11T00:29:28;-6.10;99.90
52471;DHT22;38382;53.160;7.026;2024-01-11T00:31:54;-6.40;99.90
52471;DHT22;38382;53.160;7.026;2024-01-11T00:34:21;-6.40;99.90
52471;DHT22;38382;53.160;7.026;2024-01-11T00:36:47;-6.40;99.90
52471;DHT22;38382;53.160;7.026;2024-01-11T00:39:13;-6.40;99.90
52471;DHT22;38382;53.160;7.026;2024-01-11T00:41:39;-6.50;99.90
52471;DHT22;38382;53.160;7.026;2024-01-11T00:44:05;-6.50;99.90
52471;DHT22;38382;53.160;7.026;2024-01-11T00:46:31;-6.50;99.90
52471;DHT22;38382;53.160;7.026;2024-01-11T00:48:56;-6.40;99.90
52471;DHT22;38382;53.160;7.026;2024-01-11T00:51:22;-6.50;99.90
52471;DHT22;38382;53.160;7.026;2024-01-11T00:53:48;-6.50;99.90
52471;DHT22;38382;53.160;7.026;2024-01-11T00:56:17;-6.50;99.90
52471;DHT22;38382;53.160;7.026;2024-01-11T00:58:43;-6.50;99.90
52471;DHT22;38382;53.160;7.026;2024-01-11T01:01:09;-6.50;99.90
52471;DHT22;38382;53.160;7.026;2024-01-11T01:03:35;-6.60;99.90
52471;DHT22;38382;53.160;7.026;2024-01-11T01:06:01;-4.70;99.90
52471;DHT22;38382;53.160;7.026;2024-01-11T01:08:28;-5.40;99.90
52471;DHT22;38382;53.160;7.026;2024-01-11T01:10:54;-6.60;99.90
52471;DHT22;38382;53.160;7.026;2024-01-11T01:13:20;-6.70;99.90
52471;DHT22;38382;53.160;7.026;2024-01-11T01:15:45;-6.60;99.90
52471;DHT22;38382;53.160;7.026;2024-01-11T01:18:11;-6.70;99.90
52471;DHT22;38382;53.160;7.026;2024-01-11T01:20:37;-6.60;99.90
52471;DHT22;38382;53.160;7.026;2024-01-11T01:23:02;-6.70;99.90
52471;DHT22;38382;53.160;7.026;2024-01-11T01:25:28;-6.60;99.90
52471;DHT22;38382;53.160;7.026;2024-01-11T01:27:55;-6.70;99.90
52471;DHT22;38382;53.160;7.026;2024-01-11T01:30:21;-6.70;99.90
52471;DHT22;38382;53.160;7.026;2024-01-11T01:32:47;-6.60;99.90
52471;DHT22;38382;53.160;7.026;2024-01-11T01:35:13;-6.70;99.90
52471;DHT22;38382;53.160;7.026;2024-01-11T01:37:38;-6.60;99.90
52471;DHT22;38382;53.160;7.026;2024-01-11T01:40:05;-6.70;99.90
52471;DHT22;38382;53.160;7.026;2024-01-11T01:42:33;-6.60;99.90
52471;DHT22;38382;53.160;7.026;2024-01-11T01:44:59;-6.70;99.90
52471;DHT22;38382;53.160;7.026;2024-01-11T01:47:25;-6.70;99.90
52471;DHT22;38382;53.160;7.026;2024-01-11T01:49:52;-6.70;99.90
52471;DHT22;38382;53.160;7.026;2024-01-11T01:52:18;-6.70;99.90
52471;DHT22;38382;53.160;7.026;2024-01-11T01:54:44;-6.70;99.90
52471;DHT22;38382;53.160;7.026;2024-01-11T01:57:11;-6.70;99.90
52471;DHT22;38382;53.160;7.026;2024-01-11T01:59:39;-6.80;99.90
52471;DHT22;38382;53.160;7.026;2024-01-11T02:02:05;-6.70;99.90
52471;DHT22;38382;53.160;7.026;2024-01-11T02:04:31;-6.70;99.90
52471;DHT22;38382;53.160;7.026;2024-01-11T02:06:58;-6.40;99.90
52471;DHT22;38382;53.160;7.026;2024-01-11T02:09:24;-6.90;99.90
52471;DHT22;38382;53.160;7.026;2024-01-11T02:11:51;-6.70;99.90
52471;DHT22;38382;53.160;7.026;2024-01-11T02:14:19;-6.80;99.90
52471;DHT22;38382;53.160;7.026;2024-01-11T02:16:45;-6.90;99.90
52471;DHT22;38382;53.160;7.026;2024-01-11T02:19:13;-6.90;99.90
52471;DHT22;38382;53.160;7.026;2024-01-11T02:21:42;-6.80;99.90
52471;DHT22;38382;53.160;7.026;2024-01-11T02:24:09;-6.90;99.90
52471;DHT22;38382;53.160;7.026;2024-01-11T02:26:35;-6.90;99.90
52471;DHT22;38382;53.160;7.026;2024-01-11T02:29:01;-6.90;99.90
52471;DHT22;38382;53.160;7.026;2024-01-11T02:31:27;-6.90;99.90
52471;DHT22;38382;53.160;7.026;2024-01-11T02:33:54;-6.90;99.90
52471;DHT22;38382;53.160;7.026;2024-01-11T02:36:23;-6.80;99.90
52471;DHT22;38382;53.160;7.026;2024-01-11T02:38:50;-6.90;99.90
52471;DHT22;38382;53.160;7.026;2024-01-11T02:41:18;-6.90;99.90
52471;DHT22;38382;53.160;7.026;2024-01-11T02:43:47;-6.90;99.90
52471;DHT22;38382;53.160;7.026;2024-01-11T02:46:15;-6.80;99.90
52471;DHT22;38382;53.160;7.026;2024-01-11T02:48:41;-6.80;99.90
52471;DHT22;38382;53.160;7.026;2024-01-11T02:51:06;-6.80;99.90
52471;DHT22;38382;53.160;7.026;2024-01-11T02:53:32;-6.80;99.90
52471;DHT22;38382;53.160;7.026;2024-01-11T02:56:01;-6.80;99.90
52471;DHT22;38382;53.160;7.026;2024-01-11T02:58:26;-6.80;99.90
52471;DHT22;38382;53.160;7.026;2024-01-11T03:00:52;-6.80;99.90
52471;DHT22;38382;53.160;7.026;2024-01-11T03:03:18;-6.80;99.90
52471;DHT22;38382;53.160;7.026;2024-01-11T03:05:43;-6.80;99.90
52471;DHT22;38382;53.160;7.026;2024-01-11T03:08:09;-6.80;99.90
52471;DHT22;38382;53.160;7.026;2024-01-11T03:10:37;-6.90;99.90
52471;DHT22;38382;53.160;7.026;2024-01-11T03:13:03;-6.90;99.90
52471;DHT22;38382;53.160;7.026;2024-01-11T03:15:29;-6.90;99.90
52471;DHT22;38382;53.160;7.026;2024-01-11T03:17:55;-6.80;99.90
52471;DHT22;38382;53.160;7.026;2024-01-11T03:20:20;-6.80;99.90
52471;DHT22;38382;53.160;7.026;2024-01-11T03:22:50;-6.80;99.90
52471;DHT22;38382;53.160;7.026;2024-01-11T03:25:17;-6.70;99.90
52471;DHT22;38382;53.160;7.026;2024-01-11T03:27:42;-4.90;99.90
52471;DHT22;38382;53.160;7.026;2024-01-11T03:30:08;-6.70;99.90
52471;DHT22;38382;53.160;7.026;2024-01-11T03:32:34;-6.50;99.90
52471;DHT22;38382;53.160;7.026;2024-01-11T03:35:00;-6.40;99.90
52471;DHT22;38382;53.160;7.026;2024-01-11T03:37:25;-6.20;99.90
52471;DHT22;38382;53.160;7.026;2024-01-11T03:39:51;-6.20;99.90
52471;DHT22;38382;53.160;7.026;2024-01-11T03:42:17;-6.20;99.90
52471;DHT22;38382;53.160;7.026;2024-01-11T03:44:42;-6.20;99.90
52471;DHT22;38382;53.160;7.026;2024-01-11T03:47:08;-5.90;99.90
52471;DHT22;38382;53.160;7.026;2024-01-11T03:49:34;-6.00;99.90
52471;DHT22;38382;53.160;7.026;2024-01-11T03:51:59;-5.80;99.90
52471;DHT22;38382;53.160;7.026;2024-01-11T03:54:25;-5.20;99.90
52471;DHT22;38382;53.160;7.026;2024-01-11T03:56:51;-5.80;99.90
52471;DHT22;38382;53.160;7.026;2024-01-11T03:59:16;-5.70;99.90
52471;DHT22;38382;53.160;7.026;2024-01-11T04:01:42;-5.70;99.90
52471;DHT22;38382;53.160;7.026;2024-01-11T04:04:08;-5.70;99.90
52471;DHT22;38382;53.160;7.026;2024-01-11T04:06:34;-5.60;99.90
52471;DHT22;38382;53.160;7.026;2024-01-11T04:09:00;-5.50;99.90
52471;DHT22;38382;53.160;7.026;2024-01-11T04:11:29;-5.50;99.90
52471;DHT22;38382;53.160;7.026;2024-01-11T04:13:55;-5.40;99.90
52471;DHT22;38382;53.160;7.026;2024-01-11T04:16:21;-5.30;99.90
52471;DHT22;38382;53.160;7.026;2024-01-11T04:18:47;-5.40;99.90
52471;DHT22;38382;53.160;7.026;2024-01-11T04:21:26;-5.30;99.90
52471;DHT22;38382;53.160;7.026;2024-01-11T04:23:58;-5.20;99.90
52471;DHT22;38382;53.160;7.026;2024-01-11T04:26:23;-5.10;99.90
52471;DHT22;38382;53.160;7.026;2024-01-11T04:28:51;-5.10;99.90
52471;DHT22;38382;53.160;7.026;2024-01-11T04:31:16;-5.10;99.90
52471;DHT22;38382;53.160;7.026;2024-01-11T04:33:43;-5.00;99.90
52471;DHT22;38382;53.160;7.026;2024-01-11T04:36:10;-5.00;99.90
52471;DHT22;38382;53.160;7.026;2024-01-11T04:38:36;-4.90;99.90
52471;DHT22;38382;53.160;7.026;2024-01-11T04:41:09;-4.80;99.90
52471;DHT22;38382;53.160;7.026;2024-01-11T04:43:44;-4.80;99.90
52471;DHT22;38382;53.160;7.026;2024-01-11T04:46:36;-4.80;99.90
52471;DHT22;38382;53.160;7.026;2024-01-11T04:49:01;-4.70;99.90
52471;DHT22;38382;53.160;7.026;2024-01-11T04:51:27;-4.80;99.90
52471;DHT22;38382;53.160;7.026;2024-01-11T04:53:53;-4.70;99.90
52471;DHT22;38382;53.160;7.026;2024-01-11T04:56:19;-4.60;99.90
52471;DHT22;38382;53.160;7.026;2024-01-11T04:58:45;-4.50;99.90
52471;DHT22;38382;53.160;7.026;2024-01-11T05:01:18;-4.50;99.90
52471;DHT22;38382;53.160;7.026;2024-01-11T05:03:49;-4.70;99.90
52471;DHT22;38382;53.160;7.026;2024-01-11T05:06:19;-4.40;99.90
52471;DHT22;38382;53.160;7.026;2024-01-11T05:08:50;-2.50;99.90
52471;DHT22;38382;53.160;7.026;2024-01-11T05:11:21;-2.10;99.90
52471;DHT22;38382;53.160;7.026;2024-01-11T05:13:48;-4.30;99.90
52471;DHT22;38382;53.160;7.026;2024-01-11T05:16:21;-2.50;99.90
52471;DHT22;38382;53.160;7.026;2024-01-11T05:18:48;-2.00;99.90
52471;DHT22;38382;53.160;7.026;2024-01-11T05:21:14;-4.10;99.90
52471;DHT22;38382;53.160;7.026;2024-01-11T05:23:43;-2.10;99.90
52471;DHT22;38382;53.160;7.026;2024-01-11T05:26:13;-1.70;99.90
52471;DHT22;38382;53.160;7.026;2024-01-11T05:28:39;-3.90;99.90
52471;DHT22;38382;53.160;7.026;2024-01-11T05:31:09;-4.10;99.90
52471;DHT22;38382;53.160;7.026;2024-01-11T05:33:36;-4.00;99.90
52471;DHT22;38382;53.160;7.026;2024-01-11T05:36:02;-1.90;99.90
52471;DHT22;38382;53.160;7.026;2024-01-11T05:38:28;-3.90;99.90
52471;DHT22;38382;53.160;7.026;2024-01-11T05:40:54;-3.90;99.90
52471;DHT22;38382;53.160;7.026;2024-01-11T05:43:20;-3.40;99.90
52471;DHT22;38382;53.160;7.026;2024-01-11T05:45:46;-3.90;99.90
52471;DHT22;38382;53.160;7.026;2024-01-11T05:48:11;-3.80;99.90
52471;DHT22;38382;53.160;7.026;2024-01-11T05:50:37;-3.90;99.90
52471;DHT22;38382;53.160;7.026;2024-01-11T05:53:03;-2.00;99.90
52471;DHT22;38382;53.160;7.026;2024-01-11T05:55:29;-1.60;99.90
52471;DHT22;38382;53.160;7.026;2024-01-11T05:57:54;-3.80;99.90
52471;DHT22;38382;53.160;7.026;2024-01-11T06:00:20;-3.80;99.90
52471;DHT22;38382;53.160;7.026;2024-01-11T06:02:46;-1.40;99.90
52471;DHT22;38382;53.160;7.026;2024-01-11T06:05:12;-3.70;99.90
52471;DHT22;38382;53.160;7.026;2024-01-11T06:07:38;-1.60;99.90
52471;DHT22;38382;53.160;7.026;2024-01-11T06:10:04;-1.70;99.90
52471;DHT22;38382;53.160;7.026;2024-01-11T06:12:31;-3.60;99.90
52471;DHT22;38382;53.160;7.026;2024-01-11T06:14:58;-3.70;99.90
52471;DHT22;38382;53.160;7.026;2024-01-11T06:17:24;-3.60;99.90
52471;DHT22;38382;53.160;7.026;2024-01-11T06:19:49;-1.60;99.90
52471;DHT22;38382;53.160;7.026;2024-01-11T06:22:15;-3.50;99.90
52471;DHT22;38382;53.160;7.026;2024-01-11T06:24:41;-3.50;99.90
52471;DHT22;38382;53.160;7.026;2024-01-11T06:27:07;-3.50;99.90
52471;DHT22;38382;53.160;7.026;2024-01-11T06:29:33;-2.40;99.90
52471;DHT22;38382;53.160;7.026;2024-01-11T06:31:58;-3.40;99.90
52471;DHT22;38382;53.160;7.026;2024-01-11T06:34:24;-2.00;99.90
52471;DHT22;38382;53.160;7.026;2024-01-11T06:36:50;-3.50;99.90
52471;DHT22;38382;53.160;7.026;2024-01-11T06:39:15;-2.60;99.90
52471;DHT22;38382;53.160;7.026;2024-01-11T06:41:42;-3.30;99.90
52471;DHT22;38382;53.160;7.026;2024-01-11T06:44:08;-3.30;99.90
52471;DHT22;38382;53.160;7.026;2024-01-11T06:46:34;-1.50;99.90
52471;DHT22;38382;53.160;7.026;2024-01-11T06:49:01;-3.20;99.90
52471;DHT22;38382;53.160;7.026;2024-01-11T06:51:27;-3.20;99.90
52471;DHT22;38382;53.160;7.026;2024-01-11T06:53:53;-1.20;99.90
52471;DHT22;38382;53.160;7.026;2024-01-11T06:56:19;-3.10;99.90
52471;DHT22;38382;53.160;7.026;2024-01-11T06:58:46;-3.00;99.90
52471;DHT22;38382;53.160;7.026;2024-01-11T07:01:12;-2.50;99.90
52471;DHT22;38382;53.160;7.026;2024-01-11T07:03:39;-3.10;99.90
52471;DHT22;38382;53.160;7.026;2024-01-11T07:06:05;-3.10;99.90
52471;DHT22;38382;53.160;7.026;2024-01-11T07:08:32;-3.00;99.90
52471;DHT22;38382;53.160;7.026;2024-01-11T07:11:00;-3.10;99.90
52471;DHT22;38382;53.160;7.026;2024-01-11T07:13:28;-3.00;99.90
52471;DHT22;38382;53.160;7.026;2024-01-11T07:15:54;-1.20;99.90
52471;DHT22;38382;53.160;7.026;2024-01-11T07:18:21;-0.70;99.90
52471;DHT22;38382;53.160;7.026;2024-01-11T07:20:47;-2.90;99.90
52471;DHT22;38382;53.160;7.026;2024-01-11T07:23:14;-2.90;99.90
52471;DHT22;38382;53.160;7.026;2024-01-11T07:25:40;-0.80;99.90
52471;DHT22;38382;53.160;7.026;2024-01-11T07:28:07;-2.80;99.90
52471;DHT22;38382;53.160;7.026;2024-01-11T07:30:32;-2.70;99.90
52471;DHT22;38382;53.160;7.026;2024-01-11T07:32:58;-0.60;99.90
52471;DHT22;38382;53.160;7.026;2024-01-11T07:35:24;-1.00;99.90
52471;DHT22;38382;53.160;7.026;2024-01-11T07:37:50;-2.80;99.90
52471;DHT22;38382;53.160;7.026;2024-01-11T07:40:16;-1.40;99.90
52471;DHT22;38382;53.160;7.026;2024-01-11T07:42:42;-1.30;99.90
52471;DHT22;38382;53.160;7.026;2024-01-11T07:45:09;-2.60;99.90
52471;DHT22;38382;53.160;7.026;2024-01-11T07:47:36;-2.60;99.90
52471;DHT22;38382;53.160;7.026;2024-01-11T07:50:05;-2.60;99.90
52471;DHT22;38382;53.160;7.026;2024-01-11T07:52:40;-2.50;99.90
52471;DHT22;38382;53.160;7.026;2024-01-11T07:55:11;-2.50;99.90
52471;DHT22;38382;53.160;7.026;2024-01-11T07:57:38;-2.50;99.90
52471;DHT22;38382;53.160;7.026;2024-01-11T08:00:07;-1.70;99.90
52471;DHT22;38382;53.160;7.026;2024-01-11T08:02:33;-2.40;99.90
52471;DHT22;38382;53.160;7.026;2024-01-11T08:04:59;-2.40;99.90
52471;DHT22;38382;53.160;7.026;2024-01-11T08:07:26;-2.40;99.90
52471;DHT22;38382;53.160;7.026;2024-01-11T08:09:52;-0.50;99.90
52471;DHT22;38382;53.160;7.026;2024-01-11T08:12:18;-2.30;99.90
52471;DHT22;38382;53.160;7.026;2024-01-11T08:14:43;-2.30;99.90
52471;DHT22;38382;53.160;7.026;2024-01-11T08:17:11;-0.70;99.90
52471;DHT22;38382;53.160;7.026;2024-01-11T08:19:38;-2.20;99.90
52471;DHT22;38382;53.160;7.026;2024-01-11T08:22:04;-0.10;99.90
52471;DHT22;38382;53.160;7.026;2024-01-11T08:24:29;-2.10;99.90
52471;DHT22;38382;53.160;7.026;2024-01-11T08:26:56;-0.70;99.90
52471;DHT22;38382;53.160;7.026;2024-01-11T08:29:23;-1.40;99.90
52471;DHT22;38382;53.160;7.026;2024-01-11T08:31:48;-2.20;99.90
52471;DHT22;38382;53.160;7.026;2024-01-11T08:34:14;0.20;99.90
52471;DHT22;38382;53.160;7.026;2024-01-11T08:36:40;-1.90;99.90
52471;DHT22;38382;53.160;7.026;2024-01-11T08:39:06;0.30;99.90
52471;DHT22;38382;53.160;7.026;2024-01-11T08:41:33;0.20;99.90
52471;DHT22;38382;53.160;7.026;2024-01-11T08:44:00;-0.10;99.90
52471;DHT22;38382;53.160;7.026;2024-01-11T08:46:26;-1.20;99.90
52471;DHT22;38382;53.160;7.026;2024-01-11T08:48:55;-1.70;99.90
52471;DHT22;38382;53.160;7.026;2024-01-11T08:51:22;-1.70;99.90
52471;DHT22;38382;53.160;7.026;2024-01-11T08:53:48;-1.60;99.90
52471;DHT22;38382;53.160;7.026;2024-01-11T08:56:13;0.20;99.90
52471;DHT22;38382;53.160;7.026;2024-01-11T08:58:41;-0.90;99.90
52471;DHT22;38382;53.160;7.026;2024-01-11T09:01:07;-1.60;99.90
52471;DHT22;38382;53.160;7.026;2024-01-11T09:03:37;0.20;99.90
52471;DHT22;38382;53.160;7.026;2024-01-11T09:06:03;-1.40;99.90
52471;DHT22;38382;53.160;7.026;2024-01-11T09:08:29;-1.30;99.90
52471;DHT22;38382;53.160;7.026;2024-01-11T09:10:56;-0.80;99.90
52471;DHT22;38382;53.160;7.026;2024-01-11T09:13:23;-1.20;99.90
52471;DHT22;38382;53.160;7.026;2024-01-11T09:15:52;-0.20;99.90
52471;DHT22;38382;53.160;7.026;2024-01-11T09:18:18;-0.10;99.90
52471;DHT22;38382;53.160;7.026;2024-01-11T09:20:43;0.90;99.90
52471;DHT22;38382;53.160;7.026;2024-01-11T09:23:09;-0.90;99.90
52471;DHT22;38382;53.160;7.026;2024-01-11T09:25:35;-1.10;99.90
52471;DHT22;38382;53.160;7.026;2024-01-11T09:28:01;0.50;99.90
52471;DHT22;38382;53.160;7.026;2024-01-11T09:30:26;0.90;99.90
52471;DHT22;38382;53.160;7.026;2024-01-11T09:32:52;-1.00;99.90
52471;DHT22;38382;53.160;7.026;2024-01-11T09:35:18;-0.80;99.90
52471;DHT22;38382;53.160;7.026;2024-01-11T09:37:44;0.50;99.90
52471;DHT22;38382;53.160;7.026;2024-01-11T09:40:11;0.10;99.90
52471;DHT22;38382;53.160;7.026;2024-01-11T09:42:38;1.00;99.90
52471;DHT22;38382;53.160;7.026;2024-01-11T09:45:09;0.90;99.90
52471;DHT22;38382;53.160;7.026;2024-01-11T09:47:36;-0.50;99.90
52471;DHT22;38382;53.160;7.026;2024-01-11T09:50:06;-0.60;99.90
52471;DHT22;38382;53.160;7.026;2024-01-11T09:52:32;-0.50;99.90
52471;DHT22;38382;53.160;7.026;2024-01-11T09:55:01;-0.40;99.90
52471;DHT22;38382;53.160;7.026;2024-01-11T09:57:32;-0.30;99.90
52471;DHT22;38382;53.160;7.026;2024-01-11T10:00:04;-0.20;99.90
52471;DHT22;38382;53.160;7.026;2024-01-11T10:02:32;-0.30;99.90
52471;DHT22;38382;53.160;7.026;2024-01-11T10:04:58;0.60;99.90
52471;DHT22;38382;53.160;7.026;2024-01-11T10:07:24;-0.20;99.90
52471;DHT22;38382;53.160;7.026;2024-01-11T10:09:51;0.10;99.90
52471;DHT22;38382;53.160;7.026;2024-01-11T10:12:23;0.60;99.90
52471;DHT22;38382;53.160;7.026;2024-01-11T10:14:51;-0.10;99.90
52471;DHT22;38382;53.160;7.026;2024-01-11T10:17:18;-0.10;99.90
52471;DHT22;38382;53.160;7.026;2024-01-11T10:19:43;-0.10;99.90
52471;DHT22;38382;53.160;7.026;2024-01-11T10:22:09;0.80;99.90
52471;DHT22;38382;53.160;7.026;2024-01-11T10:24:39;0.00;99.90
52471;DHT22;38382;53.160;7.026;2024-01-11T10:27:05;1.30;99.90
52471;DHT22;38382;53.160;7.026;2024-01-11T10:29:34;1.10;99.90
52471;DHT22;38382;53.160;7.026;2024-01-11T10:32:03;1.30;99.90
52471;DHT22;38382;53.160;7.026;2024-01-11T10:34:29;0.10;99.90
52471;DHT22;38382;53.160;7.026;2024-01-11T10:36:56;-0.90;99.90
52471;DHT22;38382;53.160;7.026;2024-01-11T10:39:24;1.20;99.90
52471;DHT22;38382;53.160;7.026;2024-01-11T10:42:06;0.60;99.90
52471;DHT22;38382;53.160;7.026;2024-01-11T10:44:38;0.10;99.90
52471;DHT22;38382;53.160;7.026;2024-01-11T10:47:08;0.10;99.90
52471;DHT22;38382;53.160;7.026;2024-01-11T10:49:38;0.10;99.90
52471;DHT22;38382;53.160;7.026;2024-01-11T10:52:05;0.20;99.90
52471;DHT22;38382;53.160;7.026;2024-01-11T10:54:34;0.20;99.90
52471;DHT22;38382;53.160;7.026;2024-01-11T10:57:00;0.30;99.90
52471;DHT22;38382;53.160;7.026;2024-01-11T10:59:29;1.90;99.90
52471;DHT22;38382;53.160;7.026;2024-01-11T11:01:58;1.30;99.90
52471;DHT22;38382;53.160;7.026;2024-01-11T11:04:25;2.20;99.90
52471;DHT22;38382;53.160;7.026;2024-01-11T11:06:52;1.60;99.90
52471;DHT22;38382;53.160;7.026;2024-01-11T11:09:20;0.40;99.90
52471;DHT22;38382;53.160;7.026;2024-01-11T11:11:47;1.60;99.90
52471;DHT22;38382;53.160;7.026;2024-01-11T11:14:16;1.80;99.90
52471;DHT22;38382;53.160;7.026;2024-01-11T11:16:44;1.10;99.90
52471;DHT22;38382;53.160;7.026;2024-01-11T11:19:10;0.60;99.90
52471;DHT22;38382;53.160;7.026;2024-01-11T11:21:48;0.80;99.90
52471;DHT22;38382;53.160;7.026;2024-01-11T11:24:14;1.80;99.90
52471;DHT22;38382;53.160;7.026;2024-01-11T11:26:42;1.70;99.90
52471;DHT22;38382;53.160;7.026;2024-01-11T11:29:08;0.80;99.90
52471;DHT22;38382;53.160;7.026;2024-01-11T11:31:39;0.80;99.90
52471;DHT22;38382;53.160;7.026;2024-01-11T11:34:07;0.90;99.90
52471;DHT22;38382;53.160;7.026;2024-01-11T11:36:36;1.50;99.90
52471;DHT22;38382;53.160;7.026;2024-01-11T11:39:02;0.90;99.90
52471;DHT22;38382;53.160;7.026;2024-01-11T11:41:30;1.00;99.90
52471;DHT22;38382;53.160;7.026;2024-01-11T11:44:01;1.00;99.90
52471;DHT22;38382;53.160;7.026;2024-01-11T11:46:28;1.00;99.90
52471;DHT22;38382;53.160;7.026;2024-01-11T11:48:54;1.50;99.90
52471;DHT22;38382;53.160;7.026;2024-01-11T11:51:22;1.40;99.90
52471;DHT22;38382;53.160;7.026;2024-01-11T11:53:49;2.30;99.90
52471;DHT22;38382;53.160;7.026;2024-01-11T11:56:17;2.40;99.90
52471;DHT22;38382;53.160;7.026;2024-01-11T11:58:44;1.00;99.90
52471;DHT22;38382;53.160;7.026;2024-01-11T12:01:11;1.80;99.90
52471;DHT22;38382;53.160;7.026;2024-01-11T12:03:42;0.90;99.90
52471;DHT22;38382;53.160;7.026;2024-01-11T12:06:10;1.30;99.90
52471;DHT22;38382;53.160;7.026;2024-01-11T12:08:36;1.00;99.90
52471;DHT22;38382;53.160;7.026;2024-01-11T12:11:03;0.90;99.90
52471;DHT22;38382;53.160;7.026;2024-01-11T12:13:29;0.90;99.90
52471;DHT22;38382;53.160;7.026;2024-01-11T12:15:56;1.70;99.90
52471;DHT22;38382;53.160;7.026;2024-01-11T12:18:22;1.00;99.90
52471;DHT22;38382;53.160;7.026;2024-01-11T12:20:48;1.00;99.90
52471;DHT22;38382;53.160;7.026;2024-01-11T12:23:14;1.10;99.90
52471;DHT22;38382;53.160;7.026;2024-01-11T12:25:41;1.10;99.90
52471;DHT22;38382;53.160;7.026;2024-01-11T12:28:07;1.10;99.90
52471;DHT22;38382;53.160;7.026;2024-01-11T12:30:33;2.50;99.90
52471;DHT22;38382;53.160;7.026;2024-01-11T12:33:00;1.10;99.90
52471;DHT22;38382;53.160;7.026;2024-01-11T12:35:29;1.60;99.90
52471;DHT22;38382;53.160;7.026;2024-01-11T12:37:55;2.50;99.90
52471;DHT22;38382;53.160;7.026;2024-01-11T12:40:26;2.40;99.90
52471;DHT22;38382;53.160;7.026;2024-01-11T12:42:53;1.20;99.90
52471;DHT22;38382;53.160;7.026;2024-01-11T12:45:22;1.20;99.90
52471;DHT22;38382;53.160;7.026;2024-01-11T12:47:48;1.20;99.90
52471;DHT22;38382;53.160;7.026;2024-01-11T12:50:14;1.50;99.90
52471;DHT22;38382;53.160;7.026;2024-01-11T12:52:40;1.20;99.90
52471;DHT22;38382;53.160;7.026;2024-01-11T12:55:18;1.40;99.90
52471;DHT22;38382;53.160;7.026;2024-01-11T12:57:44;1.80;99.90
52471;DHT22;38382;53.160;7.026;2024-01-11T13:00:11;1.20;99.90
52471;DHT22;38382;53.160;7.026;2024-01-11T13:02:37;1.20;99.90
52471;DHT22;38382;53.160;7.026;2024-01-11T13:05:04;1.90;99.90
52471;DHT22;38382;53.160;7.026;2024-01-11T13:07:30;1.20;99.90
52471;DHT22;38382;53.160;7.026;2024-01-11T13:09:56;2.50;99.90
52471;DHT22;38382;53.160;7.026;2024-01-11T13:12:22;1.90;99.90
52471;DHT22;38382;53.160;7.026;2024-01-11T13:14:52;1.30;99.90
52471;DHT22;38382;53.160;7.026;2024-01-11T13:17:18;1.80;99.90
52471;DHT22;38382;53.160;7.026;2024-01-11T13:19:44;1.20;99.90
52471;DHT22;38382;53.160;7.026;2024-01-11T13:22:10;2.10;99.90
52471;DHT22;38382;53.160;7.026;2024-01-11T13:24:36;1.10;99.90
52471;DHT22;38382;53.160;7.026;2024-01-11T13:27:02;1.10;99.90
52471;DHT22;38382;53.160;7.026;2024-01-11T13:29:28;1.10;99.90
52471;DHT22;38382;53.160;7.026;2024-01-11T13:31:54;1.30;99.90
52471;DHT22;38382;53.160;7.026;2024-01-11T13:34:19;2.20;99.90
52471;DHT22;38382;53.160;7.026;2024-01-11T13:36:45;1.10;99.90
52471;DHT22;38382;53.160;7.026;2024-01-11T13:39:11;1.60;99.90
52471;DHT22;38382;53.160;7.026;2024-01-11T13:41:37;1.10;99.90
52471;DHT22;38382;53.160;7.026;2024-01-11T13:44:03;1.80;99.90
52471;DHT22;38382;53.160;7.026;2024-01-11T13:46:37;1.10;99.90
52471;DHT22;38382;53.160;7.026;2024-01-11T13:49:08;1.20;99.90
52471;DHT22;38382;53.160;7.026;2024-01-11T13:51:34;1.80;99.90
52471;DHT22;38382;53.160;7.026;2024-01-11T13:54:00;1.10;99.90
52471;DHT22;38382;53.160;7.026;2024-01-11T13:56:27;1.30;99.90
52471;DHT22;38382;53.160;7.026;2024-01-11T14:02:27;1.20;99.90
52471;DHT22;38382;53.160;7.026;2024-01-11T14:04:53;1.20;99.90
52471;DHT22;38382;53.160;7.026;2024-01-11T14:07:18;1.20;99.90
52471;DHT22;38382;53.160;7.026;2024-01-11T14:09:44;2.40;99.90
52471;DHT22;38382;53.160;7.026;2024-01-11T14:12:10;1.50;99.90
52471;DHT22;38382;53.160;7.026;2024-01-11T14:14:35;2.10;99.90
52471;DHT22;38382;53.160;7.026;2024-01-11T14:17:01;1.10;99.90
52471;DHT22;38382;53.160;7.026;2024-01-11T14:19:27;1.30;99.90
52471;DHT22;38382;53.160;7.026;2024-01-11T14:21:53;1.20;99.90
52471;DHT22;38382;53.160;7.026;2024-01-11T14:24:19;1.30;99.90
52471;DHT22;38382;53.160;7.026;2024-01-11T14:26:45;1.20;99.90
52471;DHT22;38382;53.160;7.026;2024-01-11T14:29:10;1.20;99.90
52471;DHT22;38382;53.160;7.026;2024-01-11T14:31:36;1.40;99.90
52471;DHT22;38382;53.160;7.026;2024-01-11T14:34:03;1.50;99.90
52471;DHT22;38382;53.160;7.026;2024-01-11T14:36:28;1.60;99.90
52471;DHT22;38382;53.160;7.026;2024-01-11T14:38:55;2.00;99.90
52471;DHT22;38382;53.160;7.026;2024-01-11T14:41:21;1.50;99.90
52471;DHT22;38382;53.160;7.026;2024-01-11T14:43:46;2.10;99.90
52471;DHT22;38382;53.160;7.026;2024-01-11T14:46:12;1.20;99.90
52471;DHT22;38382;53.160;7.026;2024-01-11T14:48:38;1.20;99.90
52471;DHT22;38382;53.160;7.026;2024-01-11T14:51:04;2.20;99.90
52471;DHT22;38382;53.160;7.026;2024-01-11T14:53:30;1.40;99.90
52471;DHT22;38382;53.160;7.026;2024-01-11T14:55:56;2.10;99.90
52471;DHT22;38382;53.160;7.026;2024-01-11T14:58:22;1.50;99.90
52471;DHT22;38382;53.160;7.026;2024-01-11T15:00:47;1.70;99.90
52471;DHT22;38382;53.160;7.026;2024-01-11T15:03:13;1.10;99.90
52471;DHT22;38382;53.160;7.026;2024-01-11T15:05:39;1.10;99.90
52471;DHT22;38382;53.160;7.026;2024-01-11T15:08:05;2.80;99.90
52471;DHT22;38382;53.160;7.026;2024-01-11T15:10:31;1.10;99.90
52471;DHT22;38382;53.160;7.026;2024-01-11T15:12:57;1.10;99.90
52471;DHT22;38382;53.160;7.026;2024-01-11T15:15:22;1.10;99.90
52471;DHT22;38382;53.160;7.026;2024-01-11T15:17:48;1.70;99.90
52471;DHT22;38382;53.160;7.026;2024-01-11T15:20:14;1.10;99.90
52471;DHT22;38382;53.160;7.026;2024-01-11T15:22:41;1.00;99.90
52471;DHT22;38382;53.160;7.026;2024-01-11T15:25:07;2.10;99.90
52471;DHT22;38382;53.160;7.026;2024-01-11T15:27:32;1.10;99.90
52471;DHT22;38382;53.160;7.026;2024-01-11T15:29:58;1.00;99.90
52471;DHT22;38382;53.160;7.026;2024-01-11T15:32:24;1.40;99.90
52471;DHT22;38382;53.160;7.026;2024-01-11T15:34:50;1.70;99.90
52471;DHT22;38382;53.160;7.026;2024-01-11T15:37:16;1.00;99.90